createdAt,value
2022-09-07T00:00:08.288Z,77.83
2022-09-07T00:01:08.270Z,77.62
2022-09-07T00:02:08.244Z,77.62
2022-09-07T00:03:08.364Z,77.28
2022-09-07T00:04:08.257Z,77.39
2022-09-07T00:05:08.224Z,77.48
2022-09-07T00:06:08.226Z,77.32
2022-09-07T00:07:08.208Z,77.39
2022-09-07T00:08:08.191Z,77.48
2022-09-07T00:09:08.206Z,77.39
2022-09-07T00:10:08.188Z,77.19
2022-09-07T00:11:08.173Z,77.19
2022-09-07T00:12:08.166Z,77.19
2022-09-07T00:13:08.137Z,77.19
2022-09-07T00:14:08.131Z,76.98
2022-09-07T00:15:08.151Z,77.02
2022-09-07T00:16:08.169Z,77.19
2022-09-07T00:17:08.104Z,77.28
2022-09-07T00:18:08.094Z,77.28
2022-09-07T00:19:08.085Z,77.09
2022-09-07T00:20:08.081Z,76.98
2022-09-07T00:21:08.070Z,77.19
2022-09-07T00:22:08.054Z,77.09
2022-09-07T00:23:08.041Z,77.39
2022-09-07T00:24:08.032Z,76.89
2022-09-07T00:25:08.029Z,76.89
2022-09-07T00:26:08.006Z,77.19
2022-09-07T00:27:08.001Z,76.98
2022-09-07T00:28:07.998Z,76.98
2022-09-07T00:29:07.994Z,77.09
2022-09-07T00:30:07.986Z,77.39
2022-09-07T00:31:08.045Z,77.19
2022-09-07T00:32:07.952Z,77.22
2022-09-07T00:33:07.926Z,77.19
2022-09-07T00:34:07.964Z,77.02
2022-09-07T00:35:07.939Z,77.09
2022-09-07T00:36:07.918Z,77.32
2022-09-07T00:37:07.907Z,77.32
2022-09-07T00:38:07.891Z,77.32
2022-09-07T00:39:07.881Z,77.62
2022-09-07T00:40:07.965Z,77.72
2022-09-07T00:41:07.883Z,77.72
2022-09-07T00:42:07.854Z,77.72
2022-09-07T00:43:07.846Z,77.46
2022-09-07T00:44:07.833Z,77.62
2022-09-07T00:45:07.916Z,77.62
2022-09-07T00:46:07.860Z,77.32
2022-09-07T00:47:07.822Z,77.72
2022-09-07T00:48:07.807Z,77.83
2022-09-07T00:49:07.785Z,77.92
2022-09-07T00:50:07.806Z,78.03
2022-09-07T00:51:07.780Z,77.92
2022-09-07T00:52:07.758Z,78.16
2022-09-07T00:53:07.748Z,78.27
2022-09-07T00:54:07.741Z,78.16
2022-09-07T00:55:07.761Z,78.16
2022-09-07T00:56:07.727Z,78.16
2022-09-07T00:57:07.714Z,78.46
2022-09-07T00:58:07.722Z,78.56
2022-09-07T00:59:07.693Z,78.56
2022-09-07T01:00:07.703Z,78.86
2022-09-07T01:01:07.664Z,78.90
2022-09-07T01:02:07.715Z,79.30
2022-09-07T01:03:07.716Z,79.21
2022-09-07T01:04:07.639Z,79.10
2022-09-07T01:05:09.485Z,79.10
2022-09-07T01:06:08.625Z,79.10
2022-09-07T01:07:07.613Z,79.21
2022-09-07T01:08:07.606Z,80.11
2022-09-07T01:09:07.601Z,79.61
2022-09-07T01:10:07.608Z,80.01
2022-09-07T01:11:07.576Z,79.50
2022-09-07T01:12:07.569Z,79.71
2022-09-07T01:13:07.549Z,80.01
2022-09-07T01:14:07.544Z,79.71
2022-09-07T01:15:07.563Z,79.61
2022-09-07T01:16:07.557Z,79.81
2022-09-07T01:17:07.502Z,79.41
2022-09-07T01:18:07.503Z,79.41
2022-09-07T01:19:07.497Z,80.31
2022-09-07T01:20:07.519Z,80.41
2022-09-07T01:21:07.475Z,80.51
2022-09-07T01:22:07.484Z,80.61
2022-09-07T01:23:07.456Z,79.97
2022-09-07T01:24:07.446Z,79.91
2022-09-07T01:25:07.455Z,80.11
2022-09-07T01:26:07.426Z,79.61
2022-09-07T01:27:07.418Z,79.61
2022-09-07T01:28:07.418Z,79.61
2022-09-07T01:29:07.387Z,79.91
2022-09-07T01:30:07.406Z,79.61
2022-09-07T01:31:07.416Z,79.64
2022-09-07T01:32:07.362Z,80.41
2022-09-07T01:33:07.351Z,80.15
2022-09-07T01:34:07.347Z,80.31
2022-09-07T01:35:07.355Z,80.01
2022-09-07T01:36:07.326Z,79.81
2022-09-07T01:37:07.320Z,80.11
2022-09-07T01:38:07.309Z,80.11
2022-09-07T01:39:07.294Z,80.01
2022-09-07T01:40:07.380Z,80.81
2022-09-07T01:41:07.280Z,80.41
2022-09-07T01:42:07.265Z,80.11
2022-09-07T01:43:07.259Z,80.41
2022-09-07T01:44:07.253Z,80.51
2022-09-07T01:45:07.272Z,80.61
2022-09-07T01:46:07.325Z,80.61
2022-09-07T01:47:07.217Z,80.61
2022-09-07T01:48:07.213Z,80.01
2022-09-07T01:49:07.214Z,79.87
2022-09-07T01:50:07.212Z,80.57
2022-09-07T01:51:07.188Z,80.01
2022-09-07T01:52:07.172Z,79.97
2022-09-07T01:53:07.171Z,80.27
2022-09-07T01:54:07.154Z,80.27
2022-09-07T01:55:07.170Z,79.97
2022-09-07T01:56:07.136Z,79.77
2022-09-07T01:57:07.114Z,79.27
2022-09-07T01:58:07.112Z,79.27
2022-09-07T01:59:07.106Z,79.57
2022-09-07T02:00:07.110Z,79.67
2022-09-07T02:01:07.065Z,79.37
2022-09-07T02:02:07.115Z,80.27
2022-09-07T02:03:07.112Z,80.17
2022-09-07T02:04:07.057Z,79.57
2022-09-07T02:05:07.052Z,79.57
2022-09-07T02:06:07.060Z,79.91
2022-09-07T02:07:07.040Z,79.57
2022-09-07T02:08:07.017Z,79.47
2022-09-07T02:09:06.997Z,79.57
2022-09-07T02:10:07.014Z,79.57
2022-09-07T02:11:06.980Z,79.47
2022-09-07T02:12:06.978Z,79.77
2022-09-07T02:13:06.969Z,79.37
2022-09-07T02:14:06.961Z,80.07
2022-09-07T02:15:06.959Z,79.57
2022-09-07T02:16:07.047Z,79.67
2022-09-07T02:17:06.918Z,79.27
2022-09-07T02:18:06.927Z,80.17
2022-09-07T02:19:06.902Z,79.77
2022-09-07T02:20:06.925Z,80.07
2022-09-07T02:21:06.874Z,79.67
2022-09-07T02:22:06.875Z,79.77
2022-09-07T02:23:06.890Z,80.01
2022-09-07T02:24:06.855Z,79.37
2022-09-07T02:25:06.852Z,79.37
2022-09-07T02:26:06.832Z,79.37
2022-09-07T02:27:06.824Z,79.77
2022-09-07T02:28:06.817Z,80.27
2022-09-07T02:29:06.794Z,79.97
2022-09-07T02:30:06.787Z,79.77
2022-09-07T02:31:06.853Z,79.77
2022-09-07T02:32:06.801Z,80.68
2022-09-07T02:33:06.767Z,80.13
2022-09-07T02:34:06.751Z,80.07
2022-09-07T02:35:06.744Z,80.04
2022-09-07T02:36:06.750Z,79.97
2022-09-07T02:37:06.715Z,80.17
2022-09-07T02:38:06.711Z,80.17
2022-09-07T02:39:06.700Z,79.97
2022-09-07T02:40:06.752Z,80.01
2022-09-07T02:41:07.693Z,80.68
2022-09-07T02:42:06.682Z,80.68
2022-09-07T02:43:06.662Z,80.88
2022-09-07T02:44:06.653Z,80.57
2022-09-07T02:45:06.638Z,80.77
2022-09-07T02:46:06.707Z,80.47
2022-09-07T02:47:06.624Z,80.98
2022-09-07T02:48:06.615Z,81.27
2022-09-07T02:49:06.610Z,82.92
2022-09-07T02:50:06.588Z,83.93
2022-09-07T02:51:06.598Z,84.88
2022-09-07T02:52:06.576Z,84.77
2022-09-07T02:53:06.562Z,84.67
2022-09-07T02:54:06.549Z,84.53
2022-09-07T02:55:06.552Z,83.93
2022-09-07T02:56:06.551Z,84.23
2022-09-07T02:57:06.523Z,83.83
2022-09-07T02:58:06.497Z,83.83
2022-09-07T02:59:07.502Z,83.79
2022-09-07T03:00:06.504Z,83.49
2022-09-07T03:01:06.531Z,83.03
2022-09-07T03:02:06.530Z,82.89
2022-09-07T03:03:06.469Z,82.38
2022-09-07T03:04:06.463Z,82.08
2022-09-07T03:05:06.445Z,81.94
2022-09-07T03:06:06.461Z,81.84
2022-09-07T03:07:06.456Z,82.04
2022-09-07T03:08:06.421Z,81.54
2022-09-07T03:09:06.409Z,81.44
2022-09-07T03:10:06.409Z,81.04
2022-09-07T03:11:06.387Z,80.94
2022-09-07T03:12:06.383Z,80.54
2022-09-07T03:13:06.369Z,80.24
2022-09-07T03:14:06.359Z,79.73
2022-09-07T03:15:06.364Z,79.39
2022-09-07T03:16:06.360Z,79.03
2022-09-07T03:17:06.321Z,79.39
2022-09-07T03:18:06.309Z,78.99
2022-09-07T03:19:06.306Z,79.69
2022-09-07T03:20:06.312Z,79.39
2022-09-07T03:21:06.290Z,80.30
2022-09-07T03:22:06.281Z,79.60
2022-09-07T03:23:06.270Z,80.33
2022-09-07T03:24:06.261Z,80.33
2022-09-07T03:25:06.270Z,80.30
2022-09-07T03:26:06.244Z,80.43
2022-09-07T03:27:06.227Z,81.34
2022-09-07T03:28:06.220Z,80.90
2022-09-07T03:29:06.207Z,81.40
2022-09-07T03:30:06.213Z,81.14
2022-09-07T03:31:06.250Z,81.30
2022-09-07T03:32:06.180Z,81.10
2022-09-07T03:33:06.154Z,79.83
2022-09-07T03:34:06.151Z,80.50
2022-09-07T03:35:06.238Z,80.19
2022-09-07T03:36:06.134Z,79.73
2022-09-07T03:37:06.130Z,78.79
2022-09-07T03:38:06.119Z,78.79
2022-09-07T03:39:06.106Z,79.39
2022-09-07T03:40:06.157Z,79.29
2022-09-07T03:41:06.091Z,79.63
2022-09-07T03:42:06.075Z,78.93
2022-09-07T03:43:06.068Z,77.83
2022-09-07T03:44:06.090Z,77.32
2022-09-07T03:45:06.062Z,77.12
2022-09-07T03:46:06.100Z,77.22
2022-09-07T03:47:06.026Z,77.26
2022-09-07T03:48:06.034Z,77.26
2022-09-07T03:49:06.010Z,77.16
2022-09-07T03:50:06.016Z,77.56
2022-09-07T03:51:05.991Z,77.59
2022-09-07T03:52:05.978Z,77.80
2022-09-07T03:53:05.965Z,78.30
2022-09-07T03:54:05.955Z,78.60
2022-09-07T03:55:05.961Z,78.80
2022-09-07T03:56:05.941Z,78.70
2022-09-07T03:57:05.928Z,79.04
2022-09-07T03:58:05.911Z,79.54
2022-09-07T03:59:06.686Z,79.64
2022-09-07T04:00:05.928Z,79.74
2022-09-07T04:01:05.932Z,79.85
2022-09-07T04:02:05.911Z,79.44
2022-09-07T04:03:05.866Z,80.35
2022-09-07T04:04:05.863Z,80.19
2022-09-07T04:05:05.861Z,80.08
2022-09-07T04:06:05.836Z,80.89
2022-09-07T04:07:05.825Z,80.08
2022-09-07T04:08:05.821Z,80.39
2022-09-07T04:09:05.823Z,80.99
2022-09-07T04:10:05.808Z,79.88
2022-09-07T04:11:05.793Z,80.08
2022-09-07T04:12:05.783Z,79.79
2022-09-07T04:13:05.757Z,80.58
2022-09-07T04:14:05.759Z,81.19
2022-09-07T04:15:05.769Z,81.09
2022-09-07T04:16:05.739Z,81.93
2022-09-07T04:17:05.773Z,81.90
2022-09-07T04:18:05.715Z,82.14
2022-09-07T04:20:48.869Z,82.14
2022-09-07T04:21:48.865Z,81.73
2022-09-07T04:22:51.448Z,82.14
2022-09-07T04:23:49.851Z,81.63
2022-09-07T04:24:48.856Z,81.73
2022-09-07T04:25:48.824Z,82.04
2022-09-07T04:26:48.816Z,82.24
2022-09-07T04:27:48.800Z,81.73
2022-09-07T04:28:48.793Z,82.04
2022-09-07T04:29:48.796Z,81.93
2022-09-07T04:30:48.807Z,81.73
2022-09-07T04:31:48.759Z,81.63
2022-09-07T04:32:49.872Z,81.84
2022-09-07T04:33:49.857Z,82.04
2022-09-07T04:34:49.868Z,82.54
2022-09-07T04:35:49.836Z,82.44
2022-09-07T04:36:49.823Z,82.54
2022-09-07T04:37:49.818Z,82.78
2022-09-07T04:38:49.811Z,82.84
2022-09-07T04:39:49.885Z,82.88
2022-09-07T04:40:49.782Z,82.48
2022-09-07T04:41:49.766Z,82.68
2022-09-07T04:42:49.768Z,82.48
2022-09-07T04:43:49.759Z,82.78
2022-09-07T04:44:49.766Z,82.68
2022-09-07T04:45:49.760Z,82.78
2022-09-07T04:46:49.728Z,82.58
2022-09-07T04:47:49.713Z,82.48
2022-09-07T04:48:49.717Z,82.58
2022-09-07T04:49:49.699Z,82.78
2022-09-07T04:50:49.681Z,82.68
2022-09-07T04:51:49.666Z,82.58
2022-09-07T04:52:50.665Z,82.68
2022-09-07T04:53:49.639Z,83.08
2022-09-07T04:54:49.725Z,82.88
2022-09-07T04:55:49.633Z,82.78
2022-09-07T04:56:49.624Z,82.68
2022-09-07T04:57:49.613Z,82.58
2022-09-07T04:58:49.600Z,82.58
2022-09-07T04:59:49.618Z,82.98
2022-09-07T05:00:49.630Z,82.68
2022-09-07T05:01:49.570Z,83.08
2022-09-07T05:02:49.652Z,82.88
2022-09-07T05:03:49.546Z,82.78
2022-09-07T05:04:49.554Z,82.78
2022-09-07T05:05:49.517Z,82.48
2022-09-07T05:06:49.523Z,82.68
2022-09-07T05:07:49.514Z,82.24
2022-09-07T05:08:49.499Z,82.38
2022-09-07T05:09:49.516Z,82.24
2022-09-07T05:10:49.489Z,82.28
2022-09-07T05:11:49.476Z,82.68
2022-09-07T05:12:49.464Z,82.34
2022-09-07T05:13:49.452Z,82.04
2022-09-07T05:14:49.454Z,82.34
2022-09-07T05:15:49.452Z,82.58
2022-09-07T05:16:49.498Z,82.14
2022-09-07T05:17:49.397Z,82.14
2022-09-07T05:18:49.396Z,82.04
2022-09-07T05:19:49.411Z,82.44
2022-09-07T05:20:49.382Z,82.64
2022-09-07T05:21:49.369Z,82.38
2022-09-07T05:22:49.358Z,82.48
2022-09-07T05:23:49.364Z,82.78
2022-09-07T05:24:49.342Z,82.58
2022-09-07T05:25:49.330Z,82.38
2022-09-07T05:26:49.310Z,82.88
2022-09-07T05:27:49.310Z,83.93
2022-09-07T05:28:49.400Z,84.33
2022-09-07T05:30:05.756Z,84.77
2022-09-07T05:31:51.275Z,85.58
2022-09-07T05:32:49.247Z,85.08
2022-09-07T05:34:53.002Z,85.44
2022-09-07T05:35:50.228Z,85.74
2022-09-07T05:36:49.217Z,85.40
2022-09-07T05:37:49.213Z,85.40
2022-09-07T05:38:49.221Z,85.70
2022-09-07T05:39:49.239Z,85.80
2022-09-07T05:40:49.180Z,85.56
2022-09-07T05:41:49.182Z,85.36
2022-09-07T05:42:50.154Z,85.25
2022-09-07T05:44:51.165Z,84.45
2022-09-07T05:45:49.202Z,84.15
2022-09-07T05:46:49.114Z,83.91
2022-09-07T05:47:49.106Z,83.75
2022-09-07T05:48:49.090Z,83.71
2022-09-07T05:49:50.362Z,83.61
2022-09-07T05:50:49.148Z,83.81
2022-09-07T05:51:49.066Z,83.71
2022-09-07T05:52:49.052Z,83.91
2022-09-07T05:53:49.043Z,83.06
2022-09-07T05:54:49.037Z,82.76
2022-09-07T05:55:49.034Z,82.36
2022-09-07T05:56:49.012Z,82.26
2022-09-07T05:57:49.001Z,82.16
2022-09-07T05:58:48.986Z,82.46
2022-09-07T05:59:49.001Z,82.06
2022-09-07T06:00:48.972Z,82.26
2022-09-07T06:01:49.151Z,82.16
2022-09-07T06:02:49.036Z,81.62
2022-09-07T06:03:48.940Z,81.85
2022-09-07T06:04:48.956Z,81.92
2022-09-07T06:05:48.926Z,81.62
2022-09-07T06:07:17.566Z,81.62
2022-09-07T06:07:50.923Z,81.62
2022-09-07T06:08:48.911Z,81.62
2022-09-07T06:10:50.877Z,81.41
2022-09-07T06:11:48.865Z,81.82
2022-09-07T06:12:49.404Z,81.96
2022-09-07T06:13:48.847Z,82.16
2022-09-07T06:14:48.858Z,82.60
2022-09-07T06:15:48.829Z,82.60
2022-09-07T06:16:48.843Z,82.80
2022-09-07T06:17:48.796Z,82.60
2022-09-07T06:18:48.788Z,82.70
2022-09-07T06:19:48.803Z,82.70
2022-09-07T06:20:48.779Z,83.81
2022-09-07T06:21:48.765Z,83.71
2022-09-07T06:22:48.747Z,83.47
2022-09-07T06:23:48.745Z,83.47
2022-09-07T06:24:48.747Z,83.57
2022-09-07T06:25:48.724Z,83.87
2022-09-07T06:26:48.707Z,82.97
2022-09-07T06:27:48.702Z,82.72
2022-09-07T06:28:50.229Z,83.17
2022-09-07T06:29:49.701Z,82.66
2022-09-07T06:30:48.663Z,82.92
2022-09-07T06:32:50.657Z,81.82
2022-09-07T06:33:48.665Z,82.08
2022-09-07T06:34:48.628Z,81.88
2022-09-07T06:35:48.624Z,81.64
2022-09-07T06:36:48.613Z,81.14
2022-09-07T06:37:48.613Z,80.43
2022-09-07T06:38:48.611Z,80.43
2022-09-07T06:39:48.629Z,80.43
2022-09-07T06:40:48.800Z,80.57
2022-09-07T06:42:04.911Z,80.37
2022-09-07T06:42:50.560Z,80.47
2022-09-07T06:43:48.565Z,80.54
2022-09-07T06:44:48.547Z,79.93
2022-09-07T06:45:48.618Z,80.54
2022-09-07T06:47:04.449Z,80.04
2022-09-07T06:47:50.502Z,80.24
2022-09-07T06:48:48.509Z,79.99
2022-09-07T06:49:48.485Z,80.10
2022-09-07T06:50:48.463Z,79.05
2022-09-07T06:51:48.464Z,79.25
2022-09-07T06:53:50.642Z,78.45
2022-09-07T06:55:03.646Z,78.35
2022-09-07T06:55:50.424Z,78.19
2022-09-07T06:56:48.431Z,78.79
2022-09-07T06:57:48.411Z,79.33
2022-09-07T06:58:48.402Z,79.33
2022-09-07T06:59:48.381Z,80.24
2022-09-07T07:00:48.449Z,79.99
2022-09-07T07:01:48.364Z,79.23
2022-09-07T07:02:48.388Z,78.79
2022-09-07T07:03:48.336Z,78.85
2022-09-07T07:04:48.345Z,78.09
2022-09-07T07:05:48.323Z,77.65
2022-09-07T07:06:48.302Z,77.41
2022-09-07T07:07:48.302Z,76.98
2022-09-07T07:08:48.293Z,77.08
2022-09-07T07:09:48.291Z,76.47
2022-09-07T07:10:48.278Z,75.97
2022-09-07T07:11:48.256Z,75.84
2022-09-07T07:12:48.258Z,75.63
2022-09-07T07:13:48.244Z,75.40
2022-09-07T07:14:48.270Z,75.10
2022-09-07T07:15:48.223Z,74.66
2022-09-07T07:16:48.240Z,74.26
2022-09-07T07:17:56.095Z,73.56
2022-09-07T07:18:50.181Z,73.76
2022-09-07T07:19:48.219Z,72.66
2022-09-07T07:20:49.174Z,72.36
2022-09-07T07:22:10.719Z,71.96
2022-09-07T07:22:50.165Z,71.46
2022-09-07T07:23:48.159Z,71.96
2022-09-07T07:24:48.130Z,71.56
2022-09-07T07:25:48.114Z,71.86
2022-09-07T07:26:48.115Z,71.86
2022-09-07T07:27:48.106Z,71.76
2022-09-07T07:29:04.145Z,72.06
2022-09-07T07:29:50.075Z,71.80
2022-09-07T07:30:48.074Z,72.60
2022-09-07T07:31:48.060Z,73.63
2022-09-07T07:32:48.053Z,73.83
2022-09-07T07:33:48.241Z,74.43
2022-09-07T07:34:48.023Z,74.57
2022-09-07T07:35:49.012Z,74.27
2022-09-07T07:36:48.007Z,74.27
2022-09-07T07:37:48.013Z,73.33
2022-09-07T07:39:03.450Z,73.33
2022-09-07T07:40:21.976Z,73.93
2022-09-07T07:42:48.952Z,73.63
2022-09-07T07:43:47.961Z,73.90
2022-09-07T07:44:48.021Z,73.19
2022-09-07T07:45:55.195Z,74.80
2022-09-07T07:46:49.031Z,74.66
2022-09-07T07:47:47.896Z,74.16
2022-09-07T07:48:47.912Z,73.53
2022-09-07T07:49:48.028Z,72.63
2022-09-07T07:50:47.873Z,71.83
2022-09-07T07:52:50.394Z,71.92
2022-09-07T07:53:48.853Z,71.79
2022-09-07T07:54:47.826Z,70.99
2022-09-07T07:55:47.889Z,70.49
2022-09-07T07:56:47.813Z,71.83
2022-09-07T07:57:47.812Z,71.62
2022-09-07T07:58:47.811Z,71.83
2022-09-07T07:59:47.783Z,72.13
2022-09-07T08:00:56.077Z,72.72
2022-09-07T08:01:50.082Z,72.33
2022-09-07T08:02:47.866Z,71.86
2022-09-07T08:03:47.750Z,72.03
2022-09-07T08:04:47.751Z,71.42
2022-09-07T08:05:47.728Z,71.59
2022-09-07T08:06:47.719Z,71.59
2022-09-07T08:07:47.709Z,71.66
2022-09-07T08:08:47.702Z,70.56
2022-09-07T08:09:47.714Z,70.46
2022-09-07T08:10:47.680Z,70.86
2022-09-07T08:11:47.671Z,70.86
2022-09-07T08:12:47.661Z,70.36
2022-09-07T08:13:47.635Z,70.76
2022-09-07T08:14:47.652Z,70.46
2022-09-07T08:15:47.629Z,70.32
2022-09-07T08:16:47.685Z,70.39
2022-09-07T08:17:47.599Z,69.62
2022-09-07T08:18:47.601Z,70.23
2022-09-07T08:19:47.639Z,69.32
2022-09-07T08:20:48.366Z,70.12
2022-09-07T08:21:47.569Z,70.06
2022-09-07T08:22:47.557Z,70.12
2022-09-07T08:23:47.549Z,68.93
2022-09-07T08:24:47.552Z,68.99
2022-09-07T08:25:47.526Z,67.99
2022-09-07T08:26:47.519Z,68.59
2022-09-07T08:27:47.509Z,66.96
2022-09-07T08:28:47.531Z,67.00
2022-09-07T08:29:47.487Z,67.00
2022-09-07T08:30:47.486Z,66.60
2022-09-07T08:31:47.528Z,66.56
2022-09-07T08:32:47.469Z,66.09
2022-09-07T08:33:47.469Z,67.30
2022-09-07T08:34:47.440Z,67.19
2022-09-07T08:35:47.434Z,67.40
2022-09-07T08:36:47.415Z,66.70
2022-09-07T08:37:47.520Z,67.07
2022-09-07T08:38:47.426Z,65.67
2022-09-07T08:39:47.407Z,65.77
2022-09-07T08:40:47.393Z,65.77
2022-09-07T08:41:47.364Z,65.77
2022-09-07T08:42:47.351Z,65.87
2022-09-07T08:43:49.201Z,65.87
2022-09-07T08:44:48.337Z,65.34
2022-09-07T08:45:47.331Z,65.64
2022-09-07T08:46:47.426Z,64.24
2022-09-07T08:47:47.305Z,65.83
2022-09-07T08:48:47.318Z,65.44
2022-09-07T08:49:47.279Z,65.83
2022-09-07T08:50:47.287Z,65.50
2022-09-07T08:51:47.288Z,65.20
2022-09-07T08:52:47.256Z,65.20
2022-09-07T08:53:47.306Z,64.87
2022-09-07T08:54:47.243Z,64.67
2022-09-07T08:55:47.224Z,64.61
2022-09-07T08:57:49.207Z,64.41
2022-09-07T08:58:49.865Z,64.21
2022-09-07T08:59:48.188Z,65.37
2022-09-07T09:00:47.499Z,64.58
2022-09-07T09:02:26.917Z,64.04
2022-09-07T09:05:49.194Z,62.42
2022-09-07T09:06:47.232Z,62.02
2022-09-07T09:07:47.127Z,61.90
2022-09-07T09:08:47.120Z,62.19
2022-09-07T09:09:47.088Z,61.80
2022-09-07T09:10:47.079Z,61.47
2022-09-07T09:11:47.067Z,60.38
2022-09-07T09:12:47.057Z,59.98
2022-09-07T09:13:47.057Z,59.98
2022-09-07T09:14:47.040Z,59.78
2022-09-07T09:15:47.040Z,59.38
2022-09-07T09:16:47.020Z,59.38
2022-09-07T09:17:47.010Z,59.41
2022-09-07T09:18:47.000Z,59.86
2022-09-07T09:19:47.050Z,60.36
2022-09-07T09:20:46.984Z,60.13
2022-09-07T09:21:46.976Z,60.13
2022-09-07T09:22:46.964Z,60.63
2022-09-07T09:23:46.968Z,60.24
2022-09-07T09:24:46.942Z,60.53
2022-09-07T09:25:46.923Z,59.74
2022-09-07T09:26:46.987Z,59.21
2022-09-07T09:27:46.909Z,59.51
2022-09-07T09:28:46.897Z,59.70
2022-09-07T09:29:46.914Z,59.14
2022-09-07T09:30:46.980Z,59.44
2022-09-07T09:31:46.873Z,60.03
2022-09-07T09:32:46.858Z,60.06
2022-09-07T09:33:46.856Z,60.29
2022-09-07T09:34:46.837Z,60.89
2022-09-07T09:35:46.826Z,60.36
2022-09-07T09:36:46.823Z,60.39
2022-09-07T09:37:46.807Z,60.69
2022-09-07T09:38:46.788Z,59.77
2022-09-07T09:39:49.037Z,60.26
2022-09-07T09:40:46.774Z,60.26
2022-09-07T09:41:46.796Z,60.26
2022-09-07T09:42:46.746Z,60.36
2022-09-07T09:43:46.774Z,60.46
2022-09-07T09:44:46.742Z,60.36
2022-09-07T09:47:29.560Z,59.47
2022-09-07T09:47:47.754Z,59.53
2022-09-07T09:48:46.704Z,58.94
2022-09-07T09:49:46.788Z,58.51
2022-09-07T09:52:51.783Z,58.41
2022-09-07T09:53:47.666Z,58.09
2022-09-07T09:54:46.636Z,58.65
2022-09-07T09:55:46.613Z,58.53
2022-09-07T09:56:47.622Z,58.43
2022-09-07T09:59:04.639Z,57.64
2022-09-07T09:59:58.130Z,56.47
2022-09-07T10:03:56.736Z,58.78
2022-09-07T10:04:48.553Z,57.79
2022-09-07T10:05:46.531Z,57.17
2022-09-07T10:06:46.512Z,55.77
2022-09-07T10:07:46.511Z,56.27
2022-09-07T10:08:46.502Z,56.67
2022-09-07T10:09:46.509Z,57.06
2022-09-07T10:10:46.481Z,57.36
2022-09-07T10:12:48.458Z,56.54
2022-09-07T10:13:46.845Z,55.94
2022-09-07T10:14:46.463Z,56.54
2022-09-07T10:15:46.464Z,56.51
2022-09-07T10:16:46.426Z,56.38
2022-09-07T10:17:46.430Z,55.00
2022-09-07T10:18:46.402Z,55.00
2022-09-07T10:20:12.304Z,54.87
2022-09-07T10:20:46.383Z,54.38
2022-09-07T10:21:46.390Z,54.17
2022-09-07T10:22:50.886Z,52.69
2022-09-07T10:23:48.351Z,53.28
2022-09-07T10:24:46.365Z,54.08
2022-09-07T10:25:46.340Z,54.15
2022-09-07T10:26:46.329Z,54.15
2022-09-07T10:27:46.313Z,54.35
2022-09-07T10:29:48.312Z,53.85
2022-09-07T10:30:46.329Z,54.22
2022-09-07T10:31:46.279Z,54.05
2022-09-07T10:32:46.268Z,55.40
2022-09-07T10:34:25.649Z,56.16
2022-09-07T10:34:48.280Z,55.36
2022-09-07T10:35:46.240Z,55.04
2022-09-07T10:36:46.229Z,54.94
2022-09-07T10:37:46.210Z,54.75
2022-09-07T10:38:46.207Z,55.11
2022-09-07T10:39:46.248Z,54.32
2022-09-07T10:40:46.200Z,54.02
2022-09-07T10:41:46.174Z,54.32
2022-09-07T10:43:20.724Z,54.02
2022-09-07T10:43:48.160Z,54.35
2022-09-07T10:44:46.161Z,54.15
2022-09-07T10:45:46.139Z,54.15
2022-09-07T10:47:01.431Z,54.94
2022-09-07T10:47:48.126Z,54.94
2022-09-07T10:48:46.156Z,54.94
2022-09-07T10:50:48.082Z,54.64
2022-09-07T10:51:46.071Z,54.94
2022-09-07T10:52:46.069Z,53.92
2022-09-07T10:53:46.584Z,54.42
2022-09-07T10:54:46.059Z,54.02
2022-09-07T10:55:46.038Z,54.02
2022-09-07T10:56:46.033Z,53.90
2022-09-07T10:57:49.057Z,54.13
2022-09-07T10:59:02.245Z,54.39
2022-09-07T11:00:47.991Z,54.00
2022-09-07T11:01:45.999Z,54.32
2022-09-07T11:03:24.932Z,54.30
2022-09-07T11:03:48.015Z,54.39
2022-09-07T11:04:45.962Z,54.02
2022-09-07T11:05:45.948Z,53.92
2022-09-07T11:06:45.938Z,53.31
2022-09-07T11:07:45.937Z,52.54
2022-09-07T11:09:47.951Z,54.20
2022-09-07T11:10:46.902Z,53.90
2022-09-07T11:12:01.935Z,52.98
2022-09-07T11:12:47.889Z,52.56
2022-09-07T11:14:09.338Z,52.36
2022-09-07T11:14:47.883Z,50.88
2022-09-07T11:15:45.886Z,52.56
2022-09-07T11:16:53.148Z,51.99
2022-09-07T11:17:52.549Z,54.52
2022-09-07T11:18:46.835Z,53.73
2022-09-07T11:19:45.843Z,54.00
2022-09-07T11:20:45.817Z,52.88
2022-09-07T11:22:01.041Z,52.66
2022-09-07T11:22:47.792Z,52.17
2022-09-07T11:23:45.786Z,51.75
2022-09-07T11:24:46.108Z,51.52
2022-09-07T11:25:46.597Z,51.30
2022-09-07T11:26:45.755Z,50.81
2022-09-07T11:27:45.742Z,49.82
2022-09-07T11:28:45.946Z,50.61
2022-09-07T11:29:45.736Z,51.13
2022-09-07T11:30:45.786Z,51.20
2022-09-07T11:31:45.702Z,50.12
2022-09-07T11:32:45.700Z,49.72
2022-09-07T11:34:23.829Z,49.69
2022-09-07T11:34:47.689Z,50.09
2022-09-07T11:35:45.665Z,50.09
2022-09-07T11:36:45.657Z,49.99
2022-09-07T11:37:45.649Z,49.89
2022-09-07T11:38:45.640Z,48.90
2022-09-07T11:39:45.711Z,49.91
2022-09-07T11:40:45.615Z,49.62
2022-09-07T11:41:45.605Z,48.63
2022-09-07T11:42:45.597Z,49.72
2022-09-07T11:43:45.610Z,48.43
2022-09-07T11:44:45.602Z,48.53
2022-09-07T11:45:45.565Z,48.71
2022-09-07T11:46:45.657Z,48.11
2022-09-07T11:47:45.557Z,48.02
2022-09-07T11:48:45.542Z,47.99
2022-09-07T11:49:51.471Z,47.99
2022-09-07T11:50:46.523Z,47.67
2022-09-07T11:51:45.523Z,47.97
2022-09-07T11:52:45.508Z,47.47
2022-09-07T11:53:45.497Z,47.87
2022-09-07T11:54:45.495Z,47.50
2022-09-07T11:55:45.470Z,48.27
2022-09-07T11:56:45.967Z,47.47
2022-09-07T11:57:46.455Z,47.67
2022-09-07T11:58:45.443Z,47.47
2022-09-07T11:59:45.446Z,47.40
2022-09-07T12:00:46.426Z,47.72
2022-09-07T12:01:45.418Z,48.41
2022-09-07T12:02:58.768Z,48.51
2022-09-07T12:03:47.512Z,48.51
2022-09-07T12:04:45.439Z,48.80
2022-09-07T12:05:45.381Z,49.44
2022-09-07T12:06:45.370Z,49.87
2022-09-07T12:07:45.361Z,50.66
2022-09-07T12:08:45.355Z,50.63
2022-09-07T12:09:45.359Z,49.72
2022-09-07T12:10:45.331Z,49.20
2022-09-07T12:11:45.319Z,48.61
2022-09-07T12:12:45.311Z,47.99
2022-09-07T12:13:45.300Z,47.47
2022-09-07T12:14:45.306Z,47.97
2022-09-07T12:15:45.295Z,46.69
2022-09-07T12:16:45.266Z,45.97
2022-09-07T12:17:45.260Z,46.26
2022-09-07T12:18:45.248Z,45.75
2022-09-07T12:19:45.253Z,45.36
2022-09-07T12:20:45.228Z,45.85
2022-09-07T12:21:45.218Z,45.83
2022-09-07T12:22:45.206Z,45.34
2022-09-07T12:23:45.200Z,45.21
2022-09-07T12:24:45.213Z,45.12
2022-09-07T12:25:45.179Z,44.72
2022-09-07T12:26:45.167Z,43.74
2022-09-07T12:27:45.158Z,45.56
2022-09-07T12:28:45.148Z,45.60
2022-09-07T12:29:45.587Z,45.30
2022-09-07T12:30:45.139Z,46.93
2022-09-07T12:31:57.670Z,48.83
2022-09-07T12:32:55.868Z,48.11
2022-09-07T12:33:47.104Z,47.89
2022-09-07T12:34:45.109Z,47.08
2022-09-07T12:35:45.084Z,46.86
2022-09-07T12:36:45.067Z,46.25
2022-09-07T12:37:45.057Z,45.56
2022-09-07T12:38:45.049Z,45.06
2022-09-07T12:39:45.098Z,45.36
2022-09-07T12:40:45.030Z,45.53
2022-09-07T12:41:47.370Z,44.84
2022-09-07T12:42:45.009Z,45.51
2022-09-07T12:43:45.008Z,45.02
2022-09-07T12:44:45.013Z,43.93
2022-09-07T12:45:44.984Z,43.54
2022-09-07T12:46:46.740Z,43.82
2022-09-07T12:47:44.963Z,43.40
2022-09-07T12:48:44.955Z,43.20
2022-09-07T12:49:44.962Z,43.30
2022-09-07T12:50:44.927Z,43.20
2022-09-07T12:52:06.852Z,42.69
2022-09-07T12:52:46.910Z,43.40
2022-09-07T12:53:44.903Z,43.42
2022-09-07T12:54:44.914Z,43.42
2022-09-07T12:56:47.080Z,44.13
2022-09-07T12:57:44.864Z,45.24
2022-09-07T12:58:44.876Z,44.13
2022-09-07T12:59:44.856Z,43.84
2022-09-07T13:00:44.842Z,44.18
2022-09-07T13:01:44.921Z,45.97
2022-09-07T13:02:44.888Z,46.09
2022-09-07T13:03:52.417Z,45.38
2022-09-07T13:04:46.827Z,44.67
2022-09-07T13:05:44.783Z,45.67
2022-09-07T13:07:46.767Z,45.63
2022-09-07T13:08:44.753Z,43.24
2022-09-07T13:09:44.759Z,43.74
2022-09-07T13:10:44.733Z,44.13
2022-09-07T13:11:45.620Z,42.93
2022-09-07T13:13:00.120Z,42.44
2022-09-07T13:14:04.440Z,42.63
2022-09-07T13:14:46.719Z,42.81
2022-09-07T13:15:44.735Z,42.22
2022-09-07T13:17:46.662Z,42.61
2022-09-07T13:18:44.651Z,43.10
2022-09-07T13:19:44.683Z,43.60
2022-09-07T13:20:44.641Z,43.20
2022-09-07T13:21:44.641Z,43.08